Weather reports worldwide

Advertisment
Cieza, Spain (8363): temperature & dewpoint: 19.03.2019 18:00:00 - 25.03.2019 18:00:00 (CET)Cieza, Spain (8363): wind speed & gusts: 19.03.2019 18:00:00 - 25.03.2019 18:00:00 (CET)Cieza, Spain (8363): wind direction: 19.03.2019 18:00:00 - 25.03.2019 18:00:00 (CET)Cieza, Spain (8363): precipitation: 19.03.2019 18:00:00 - 25.03.2019 18:00:00 (CET)
Date & Time tt [°C] td [°C] ff [km/h] ff [kn] fx [km/h] fx [kn] dd rr [mm]
25.03.2019 18:00:00 - - - - - - - -
25.03.2019 17:00:00 22,0 3,2 14 8 25 13 SE 0,0
25.03.2019 16:00:00 22,2 3,4 12 7 26 14 SE 0,0
25.03.2019 15:00:00 22,0 3,2 12 7 25 13 SE 0,0
25.03.2019 14:00:00 21,8 4,8 7 4 22 12 ESE 0,0
25.03.2019 13:00:00 20,2 4,3 6 4 17 9 ESE -
25.03.2019 12:00:00 17,7 3,6 4 2 14 7 WNW 0,0
25.03.2019 11:00:00 14,2 3,7 10 5 18 10 W 0,0
25.03.2019 10:00:00 10,6 3,2 12 7 18 10 WNW 0,0
25.03.2019 09:00:00 7,0 1,9 11 6 18 10 W 0,0
25.03.2019 08:00:00 4,8 0,6 10 5 14 7 W 0,0
25.03.2019 07:00:00 5,3 1,1 9 5 12 6 W -
25.03.2019 06:00:00 5,3 1,1 8 5 16 9 W 0,0
25.03.2019 05:00:00 6,1 1,5 11 6 16 9 W 0,0
25.03.2019 04:00:00 6,5 1,6 9 5 14 8 W 0,0
25.03.2019 03:00:00 7,5 2,2 11 6 15 8 W 0,0
25.03.2019 02:00:00 7,2 2,3 4 2 8 5 WNW 0,0
25.03.2019 01:00:00 8,0 2,9 3 1 7 4 W -
25.03.2019 00:00:00 7,9 2,2 0 0 5 3 WNW 0,0
24.03.2019 23:00:00 9,8 2,7 1 0 6 3 E 0,0
24.03.2019 22:00:00 10,8 2,6 0 0 6 3 N 0,0
24.03.2019 21:00:00 13,8 2,7 2 1 11 6 SE 0,0
24.03.2019 20:00:00 14,7 2,9 4 2 16 9 ESE 0,0
24.03.2019 19:00:00 16,6 3,0 10 5 28 15 ESE -
24.03.2019 18:00:00 17,9 3,8 16 9 36 19 SE 0,0
24.03.2019 17:00:00 18,4 3,9 24 13 35 19 SE 0,0
24.03.2019 16:00:00 19,2 4,9 16 9 34 18 SE 0,0
24.03.2019 15:00:00 19,7 5,4 23 12 34 18 SE 0,0
24.03.2019 14:00:00 19,9 5,9 13 7 27 15 SE 0,0
24.03.2019 13:00:00 17,7 6,0 5 3 19 10 ESE -
24.03.2019 12:00:00 15,1 5,3 9 5 16 9 W 0,0
24.03.2019 11:00:00 11,7 5,6 9 5 16 9 W 0,0
24.03.2019 10:00:00 9,0 4,6 11 6 16 9 W 0,0
24.03.2019 09:00:00 5,9 3,9 10 5 14 8 W 0,0
24.03.2019 08:00:00 4,2 3,2 11 6 17 9 W 0,0
24.03.2019 07:00:00 3,4 2,5 3 1 11 6 WNW -
24.03.2019 06:00:00 5,0 3,7 6 3 15 8 W 0,0
24.03.2019 05:00:00 4,9 3,9 10 6 16 9 WNW 0,0
24.03.2019 04:00:00 5,4 4,4 6 4 10 6 W 0,0
24.03.2019 03:00:00 6,1 5,1 5 3 9 5 W 0,0
24.03.2019 02:00:00 6,9 5,2 7 4 12 6 W 0,0
24.03.2019 01:00:00 7,2 5,8 6 3 8 5 WNW -
24.03.2019 00:00:00 7,2 6,3 0 0 0 0 N 0,0
23.03.2019 23:00:00 7,5 6,0 0 0 6 3 N 0,0
23.03.2019 22:00:00 9,7 7,0 0 0 12 7 N 0,0
23.03.2019 21:00:00 11,9 8,2 11 6 21 12 SSE 0,0
23.03.2019 20:00:00 13,5 5,4 11 6 17 9 SE 0,0
23.03.2019 19:00:00 14,7 6,0 8 4 16 8 SE -
23.03.2019 18:00:00 15,1 6,1 8 5 14 8 ESE 0,0
23.03.2019 17:00:00 15,0 6,3 0 0 0 0 N 0,0
23.03.2019 16:00:00 15,0 6,3 2 1 7 4 WNW 0,0
23.03.2019 15:00:00 14,6 5,9 5 3 13 7 SSE 0,0
23.03.2019 14:00:00 14,1 5,2 10 6 19 10 SSE 0,0
23.03.2019 13:00:00 14,7 4,7 4 2 9 5 S -
23.03.2019 12:00:00 14,4 4,7 4 2 9 5 W 0,0
23.03.2019 11:00:00 13,9 4,2 7 4 12 7 W 0,0
23.03.2019 10:00:00 12,4 4,1 8 4 13 7 W 0,0
23.03.2019 09:00:00 11,6 3,4 5 3 9 5 WNW 0,0
23.03.2019 08:00:00 11,0 2,6 3 2 14 8 W 0,0
23.03.2019 07:00:00 10,8 2,4 8 4 13 7 WNW -
23.03.2019 06:00:00 10,7 2,6 8 4 18 10 W 0,0
23.03.2019 05:00:00 10,4 3,0 10 5 18 10 W 0,0
23.03.2019 04:00:00 10,5 3,1 8 5 16 9 W 0,0
23.03.2019 03:00:00 10,4 3,2 8 4 16 9 W 0,0
23.03.2019 02:00:00 10,2 3,0 9 5 16 9 W 0,0
23.03.2019 01:00:00 11,7 3,5 7 4 14 8 W -
23.03.2019 00:00:00 12,0 3,8 4 2 10 5 WNW 0,0
22.03.2019 23:00:00 12,8 4,3 6 3 12 6 N 0,0
22.03.2019 22:00:00 11,9 4,4 2 1 6 4 NNE 0,0
22.03.2019 21:00:00 12,9 4,1 0 0 6 3 E 0,0
22.03.2019 20:00:00 15,5 5,1 4 2 12 6 NNE 0,0
22.03.2019 19:00:00 16,4 4,8 8 4 16 9 SE -
22.03.2019 18:00:00 17,7 4,7 10 6 26 14 ESE 0,0
22.03.2019 17:00:00 18,1 4,7 17 9 25 13 ESE 0,0
22.03.2019 16:00:00 19,9 4,4 13 7 29 16 SE 0,0
22.03.2019 15:00:00 19,6 4,2 9 5 27 14 NNE 0,0
22.03.2019 14:00:00 17,7 4,0 11 6 19 11 W 0,0
22.03.2019 13:00:00 16,1 3,9 5 3 18 10 W -
22.03.2019 12:00:00 14,2 3,7 8 4 21 11 W 0,0
22.03.2019 11:00:00 12,1 4,1 11 6 21 12 W 0,0
22.03.2019 10:00:00 9,0 2,8 13 7 22 12 WNW 0,0
22.03.2019 09:00:00 6,8 1,9 11 6 19 10 WNW 0,0
22.03.2019 08:00:00 4,6 0,9 11 6 22 12 W 0,0
22.03.2019 07:00:00 4,3 0,8 17 9 24 13 W -
22.03.2019 06:00:00 4,5 1,2 8 4 19 11 W 0,0
22.03.2019 05:00:00 4,4 0,6 8 4 17 9 W 0,0
22.03.2019 04:00:00 4,7 0,5 10 5 21 12 W 0,0
22.03.2019 03:00:00 6,1 2,4 14 8 20 11 W 0,0
22.03.2019 02:00:00 5,8 1,2 8 5 14 8 W 0,0
22.03.2019 01:00:00 7,9 1,3 8 5 15 8 W -
22.03.2019 00:00:00 8,2 0,5 2 1 11 6 NNW 0,0
21.03.2019 23:00:00 9,1 -1,6 5 3 9 5 N 0,0
21.03.2019 22:00:00 9,5 -2,7 1 0 7 4 S 0,0
21.03.2019 21:00:00 11,1 -2,3 4 2 21 12 NE 0,0
21.03.2019 20:00:00 12,6 -1,7 13 7 26 14 NE 0,0
21.03.2019 19:00:00 14,7 -0,2 14 8 29 15 NE -
21.03.2019 18:00:00 16,2 0,8 13 7 23 13 NNE 0,0
21.03.2019 17:00:00 16,3 0,4 9 5 21 11 NE 0,0
21.03.2019 16:00:00 16,1 0,7 6 3 20 11 ENE 0,0
21.03.2019 15:00:00 17,0 1,1 7 4 26 14 ENE 0,0
21.03.2019 14:00:00 16,8 0,9 10 5 25 14 NE 0,0
21.03.2019 13:00:00 14,8 1,0 9 5 24 13 NE -
21.03.2019 12:00:00 14,1 3,6 6 3 18 10 S 0,0
21.03.2019 11:00:00 10,9 3,9 11 6 22 12 W 0,0
21.03.2019 10:00:00 8,1 3,2 13 7 21 11 W 0,0
21.03.2019 09:00:00 5,9 2,4 9 5 19 10 WNW 0,0
21.03.2019 08:00:00 2,9 0,8 10 5 22 12 W 0,0
21.03.2019 07:00:00 2,9 1,1 13 7 19 10 W -
21.03.2019 06:00:00 3,2 0,9 9 5 14 8 W 0,0
21.03.2019 05:00:00 3,5 1,1 11 6 15 8 W 0,0
21.03.2019 04:00:00 3,8 0,7 5 3 15 8 NW 0,0
21.03.2019 03:00:00 4,6 2,0 8 4 13 7 W 0,0
21.03.2019 02:00:00 4,6 2,3 2 1 8 4 WNW 0,0
21.03.2019 01:00:00 4,3 1,5 1 1 5 3 E -
21.03.2019 00:00:00 6,1 2,6 0 0 8 4 ENE 0,0
20.03.2019 23:00:00 6,9 3,3 0 0 0 0 N 0,0
20.03.2019 22:00:00 8,5 3,6 1 0 7 4 S 0,0
20.03.2019 21:00:00 9,4 4,4 2 1 17 9 SSE 0,0
20.03.2019 20:00:00 9,6 3,8 10 6 22 12 SE 0,0
20.03.2019 19:00:00 11,2 4,0 11 6 28 15 SE -
20.03.2019 18:00:00 12,5 3,7 17 9 25 14 SE 0,0
20.03.2019 17:00:00 12,9 4,4 13 7 23 13 ESE 0,0
20.03.2019 16:00:00 12,4 6,0 5 3 15 8 S 0,0
20.03.2019 15:00:00 10,9 6,8 12 6 27 15 SE 0,1
20.03.2019 14:00:00 11,9 4,4 1 1 8 4 S 0,0
20.03.2019 13:00:00 12,4 3,9 3 2 8 4 ESE -
20.03.2019 12:00:00 11,5 4,5 8 4 15 8 W 0,0
20.03.2019 11:00:00 11,0 4,9 11 6 16 9 W 0,0
20.03.2019 10:00:00 8,0 4,0 7 4 14 7 W 0,0
20.03.2019 09:00:00 7,7 3,9 8 4 13 7 W 0,0
20.03.2019 08:00:00 7,0 4,0 5 3 16 8 NW 0,0
20.03.2019 07:00:00 6,5 4,0 6 4 10 5 WNW -
20.03.2019 06:00:00 6,9 4,2 4 2 9 5 W 0,0
20.03.2019 05:00:00 7,1 4,1 0 0 6 3 N 0,0
20.03.2019 04:00:00 7,6 4,2 3 2 8 5 NE 0,0
20.03.2019 03:00:00 7,9 4,3 2 1 8 4 NE 0,0
20.03.2019 02:00:00 8,8 5,2 1 1 10 5 E 0,0
20.03.2019 01:00:00 9,0 5,2 5 3 11 6 ESE -
20.03.2019 00:00:00 9,5 5,3 5 3 15 8 ESE 0,0
19.03.2019 23:00:00 9,8 5,0 7 4 13 7 SE 0,0
19.03.2019 22:00:00 10,4 4,8 6 4 23 12 SE 0,0
19.03.2019 21:00:00 10,6 4,5 14 7 27 14 SE 0,0
19.03.2019 20:00:00 10,9 4,4 15 8 25 14 ESE 0,0
19.03.2019 19:00:00 11,9 3,9 18 10 29 16 SE -
19.03.2019 18:00:00 12,7 4,4 19 11 35 19 ESE 0,0

tt = temperature
td = dewpoint
ff = wind speed
fx = gusts
dd = wind direction
rr = precipitation

Next stations